Time,TemperatureF,DewpointF,PressureIn,WindDirection,WindDirectionDegrees,WindSpeedMPH,WindSpeedGustMPH,Humidity,HourlyPrecipIn,Conditions,Clouds,dailyrainin,SoftwareType,DateUTC
2013-05-26 01:22:00,40.0,39.0,29.57,SSW,212,0.0,0.0,95,0.76,,,1.29,,2013-05-26 05:22:00,
2013-05-26 01:32:00,40.0,39.0,29.57,SSW,212,0.0,0.0,95,0.76,,,1.29,,2013-05-26 05:32:00,
2013-05-26 01:42:00,40.0,39.0,29.57,SSW,212,0.0,0.0,95,0.76,,,1.29,,2013-05-26 05:42:00,
2013-05-26 01:52:00,40.0,39.0,29.57,SSW,212,0.0,0.0,95,0.76,,,1.29,,2013-05-26 05:52:00,
2013-05-26 02:01:00,40.0,39.0,29.56,SSW,195,22.0,22.0,95,0.10,,,1.30,,2013-05-26 06:01:00,
2013-05-26 02:12:00,40.0,39.0,29.56,SSW,195,22.0,22.0,95,0.10,,,1.30,,2013-05-26 06:12:00,
2013-05-26 02:22:00,40.0,39.0,29.56,SSW,195,22.0,22.0,95,0.10,,,1.30,,2013-05-26 06:22:00,
2013-05-26 02:32:00,40.0,39.0,29.54,North,0,255.0,255.0,95,0.00,,,1.30,,2013-05-26 06:32:00,
2013-05-26 02:42:00,40.0,39.0,29.54,North,0,255.0,255.0,95,0.00,,,1.30,,2013-05-26 06:42:00,
2013-05-26 02:52:00,40.0,39.0,29.53,North,0,255.0,255.0,95,0.00,,,1.30,,2013-05-26 06:52:00,
2013-05-26 03:02:00,40.0,38.0,29.53,North,0,255.0,255.0,92,0.00,,,1.30,,2013-05-26 07:02:00,
2013-05-26 03:11:00,40.0,38.0,29.53,North,0,255.0,255.0,92,0.00,,,1.30,,2013-05-26 07:11:00,
2013-05-26 03:22:00,40.0,38.0,29.53,North,0,255.0,255.0,92,0.00,,,1.30,,2013-05-26 07:22:00,
2013-05-26 03:32:00,40.0,38.0,29.53,North,0,255.0,255.0,92,0.00,,,1.30,,2013-05-26 07:32:00,
2013-05-26 04:52:00,40.0,38.0,29.55,SW,234,5.0,5.0,94,0.04,,,1.26,,2013-05-26 08:52:00,
2013-05-26 05:11:00,40.0,38.0,29.55,SW,234,5.0,5.0,94,0.04,,,1.26,,2013-05-26 09:11:00,
2013-05-26 05:22:00,40.0,38.0,29.55,SW,234,5.0,5.0,94,0.04,,,1.26,,2013-05-26 09:22:00,
2013-05-26 05:33:00,40.0,38.0,29.55,SW,234,5.0,5.0,94,0.04,,,1.26,,2013-05-26 09:33:00,
2013-05-26 05:43:00,40.0,38.0,29.55,SW,234,5.0,5.0,94,0.04,,,1.26,,2013-05-26 09:43:00,
2013-05-26 06:22:00,40.0,38.0,29.57,SW,230,2.0,2.0,94,0.00,,,1.26,,2013-05-26 10:22:00,
2013-05-26 06:23:00,40.0,38.0,29.56,SSW,205,0.0,0.0,94,0.00,,,1.26,,2013-05-26 10:23:00,
2013-05-26 06:33:00,40.0,38.0,29.57,SSW,205,5.0,5.0,94,0.00,,,1.26,,2013-05-26 10:33:00,
2013-05-26 06:42:00,40.0,38.0,29.57,SW,230,2.0,2.0,94,0.00,,,1.26,,2013-05-26 10:42:00,
2013-05-26 06:52:00,40.0,38.0,29.57,SW,230,2.0,2.0,94,0.00,,,1.26,,2013-05-26 10:52:00,
2013-05-26 07:03:00,40.0,38.0,29.57,SW,230,2.0,2.0,94,0.00,,,1.26,,2013-05-26 11:03:00,
2013-05-26 07:11:00,40.0,38.0,29.57,SW,230,2.0,2.0,94,0.00,,,1.26,,2013-05-26 11:11:00,
2013-05-26 07:52:00,41.0,38.0,29.59,SW,219,6.0,8.0,89,0.00,,,0.81,,2013-05-26 11:52:00,
2013-05-26 08:22:00,41.0,38.0,29.59,SW,219,6.0,8.0,89,0.00,,,0.81,,2013-05-26 12:22:00,
2013-05-26 08:32:00,41.0,38.0,29.59,SW,219,6.0,8.0,89,0.00,,,0.81,,2013-05-26 12:32:00,
2013-05-26 08:42:00,41.0,38.0,29.59,SW,219,6.0,8.0,89,0.00,,,0.81,,2013-05-26 12:42:00,
2013-05-26 11:02:00,48.0,39.0,29.63,WSW,237,2.0,11.0,72,0.00,,,0.81,,2013-05-26 15:02:00,
2013-05-26 11:12:00,49.0,40.0,29.63,South,175,11.0,17.0,70,0.00,,,0.81,,2013-05-26 15:12:00,
2013-05-26 11:22:00,49.0,40.0,29.63,South,175,11.0,17.0,70,0.00,,,0.81,,2013-05-26 15:22:00,
2013-05-26 11:33:00,49.0,40.0,29.63,South,175,11.0,17.0,70,0.00,,,0.81,,2013-05-26 15:33:00,
2013-05-26 11:43:00,50.0,39.0,29.64,WSW,244,12.0,18.0,66,0.00,,,0.81,,2013-05-26 15:43:00,
2013-05-26 11:53:00,50.0,39.0,29.64,WSW,244,12.0,18.0,66,0.00,,,0.81,,2013-05-26 15:53:00,
2013-05-26 12:03:00,49.0,38.0,29.64,SW,220,3.0,17.0,66,0.00,,,0.81,,2013-05-26 16:03:00,
2013-05-26 12:12:00,48.0,38.0,29.65,WNW,292,7.0,12.0,69,0.00,,,0.81,,2013-05-26 16:12:00,
2013-05-26 12:23:00,48.0,38.0,29.65,WNW,292,7.0,12.0,69,0.00,,,0.81,,2013-05-26 16:23:00,
2013-05-26 12:33:00,48.0,38.0,29.65,WNW,292,7.0,12.0,69,0.00,,,0.81,,2013-05-26 16:33:00,
2013-05-26 12:42:00,48.0,38.0,29.65,WNW,292,7.0,12.0,69,0.00,,,0.81,,2013-05-26 16:42:00,
2013-05-26 12:53:00,48.0,38.0,29.65,WNW,292,7.0,12.0,69,0.00,,,0.81,,2013-05-26 16:53:00,
2013-05-26 13:02:00,48.0,39.0,29.66,WSW,244,8.0,8.0,71,0.00,,,0.81,,2013-05-26 17:02:00,
2013-05-26 13:11:00,48.0,39.0,29.66,SSW,205,3.0,8.0,71,0.00,,,0.81,,2013-05-26 17:11:00,
2013-05-26 13:21:00,48.0,37.0,29.66,SSW,208,3.0,9.0,66,0.00,,,0.81,,2013-05-26 17:21:00,
2013-05-26 13:23:00,48.0,39.0,29.66,SSW,205,3.0,8.0,71,0.00,,,0.81,,2013-05-26 17:23:00,
2013-05-26 13:32:00,48.0,39.0,29.66,SSW,205,3.0,8.0,71,0.00,,,0.81,,2013-05-26 17:32:00,
2013-05-26 13:42:00,48.0,37.0,29.66,SSW,208,3.0,9.0,66,0.00,,,0.81,,2013-05-26 17:42:00,
2013-05-26 13:52:00,48.0,37.0,29.66,SSW,208,3.0,9.0,66,0.00,,,0.81,,2013-05-26 17:52:00,
2013-05-26 14:01:00,48.0,37.0,29.66,SSW,208,3.0,9.0,66,0.00,,,0.81,,2013-05-26 18:01:00,
2013-05-26 14:12:00,48.0,37.0,29.66,SSW,208,3.0,9.0,66,0.00,,,0.81,,2013-05-26 18:12:00,
2013-05-26 14:32:00,50.0,39.0,29.68,SSW,195,4.0,5.0,66,0.00,,,0.81,,2013-05-26 18:32:00,
2013-05-26 14:42:00,50.0,39.0,29.68,SSW,195,4.0,5.0,66,0.00,,,0.81,,2013-05-26 18:42:00,
2013-05-26 14:52:00,50.0,39.0,29.68,SSW,195,4.0,5.0,66,0.00,,,0.81,,2013-05-26 18:52:00,
2013-05-26 15:01:00,50.0,39.0,29.68,SSW,195,4.0,5.0,66,0.00,,,0.81,,2013-05-26 19:01:00,
2013-05-26 15:11:00,50.0,39.0,29.68,SSW,195,4.0,5.0,66,0.00,,,0.81,,2013-05-26 19:11:00,
2013-05-26 15:42:00,49.0,40.0,29.70,WSW,244,6.0,6.0,70,0.00,,,0.81,,2013-05-26 19:42:00,
2013-05-26 15:52:00,49.0,40.0,29.70,WSW,244,6.0,6.0,70,0.00,,,0.81,,2013-05-26 19:52:00,
2013-05-26 16:02:00,49.0,40.0,29.70,WSW,244,6.0,6.0,70,0.00,,,0.81,,2013-05-26 20:02:00,
2013-05-26 16:11:00,49.0,40.0,29.70,WSW,244,6.0,6.0,70,0.00,,,0.81,,2013-05-26 20:11:00,
2013-05-26 16:22:00,49.0,40.0,29.70,WSW,244,6.0,6.0,70,0.00,,,0.81,,2013-05-26 20:22:00,
2013-05-26 16:32:00,51.0,40.0,29.71,SSW,208,1.0,1.0,66,0.00,,,0.81,,2013-05-26 20:32:00,
2013-05-26 16:42:00,51.0,40.0,29.71,SSW,208,1.0,1.0,66,0.00,,,0.81,,2013-05-26 20:42:00,
2013-05-26 16:52:00,51.0,40.0,29.71,SSW,208,1.0,1.0,66,0.00,,,0.81,,2013-05-26 20:52:00,
2013-05-26 17:02:00,51.0,40.0,29.71,SSW,208,1.0,1.0,66,0.00,,,0.81,,2013-05-26 21:02:00,
2013-05-26 17:11:00,51.0,40.0,29.71,SSW,208,1.0,1.0,66,0.00,,,0.81,,2013-05-26 21:11:00,
2013-05-26 19:02:00,49.0,38.0,29.80,North,0,255.0,255.0,66,0.00,,,0.81,,2013-05-26 23:02:00,
2013-05-26 19:12:00,49.0,38.0,29.80,North,0,255.0,255.0,66,0.00,,,0.81,,2013-05-26 23:12:00,
2013-05-26 19:22:00,49.0,38.0,29.80,North,0,255.0,255.0,66,0.00,,,0.81,,2013-05-26 23:22:00,
2013-05-26 19:32:00,49.0,38.0,29.80,North,0,255.0,255.0,66,0.00,,,0.81,,2013-05-26 23:32:00,
2013-05-26 19:43:00,49.0,38.0,29.80,North,0,255.0,255.0,66,0.00,,,0.81,,2013-05-26 23:43:00,
2013-05-26 21:01:00,49.0,43.0,29.82,North,0,255.0,255.0,80,0.00,,,0.81,,2013-05-27 01:01:00,
2013-05-26 21:11:00,49.0,43.0,29.84,North,0,255.0,255.0,80,0.00,,,0.81,,2013-05-27 01:11:00,
2013-05-26 21:22:00,49.0,43.0,29.84,North,0,255.0,255.0,80,0.00,,,0.81,,2013-05-27 01:22:00,
2013-05-26 21:32:00,49.0,43.0,29.84,North,0,255.0,255.0,80,0.00,,,0.81,,2013-05-27 01:32:00,
2013-05-26 21:42:00,49.0,43.0,29.84,North,0,255.0,255.0,80,0.00,,,0.81,,2013-05-27 01:42:00,
2013-05-26 21:52:00,49.0,43.0,29.84,North,0,255.0,255.0,80,0.00,,,0.81,,2013-05-27 01:52:00,
2013-05-26 22:02:00,49.0,43.0,29.84,North,0,255.0,255.0,80,0.00,,,0.81,,2013-05-27 02:02:00,
2013-05-26 22:11:00,49.0,43.0,29.84,North,0,255.0,255.0,80,0.00,,,0.81,,2013-05-27 02:11:00,